sensor_id;sensor_type;location;lat;lon;timestamp;temperature;humidity
2022;DHT22;1015;49.756;6.994;2022-10-19T00:01:04;11.80;99.90
2022;DHT22;1015;49.756;6.994;2022-10-19T00:03:32;11.70;99.90
2022;DHT22;1015;49.756;6.994;2022-10-19T00:06:09;11.70;99.90
2022;DHT22;1015;49.756;6.994;2022-10-19T00:08:37;11.70;99.90
2022;DHT22;1015;49.756;6.994;2022-10-19T00:11:04;11.60;99.90
2022;DHT22;1015;49.756;6.994;2022-10-19T00:13:31;11.60;99.90
2022;DHT22;1015;49.756;6.994;2022-10-19T00:15:58;11.60;99.90
2022;DHT22;1015;49.756;6.994;2022-10-19T00:18:26;11.50;99.90
2022;DHT22;1015;49.756;6.994;2022-10-19T00:21:03;11.50;99.90
2022;DHT22;1015;49.756;6.994;2022-10-19T00:23:30;11.50;99.90
2022;DHT22;1015;49.756;6.994;2022-10-19T00:25:58;11.50;99.90
2022;DHT22;1015;49.756;6.994;2022-10-19T00:28:26;11.50;99.90
2022;DHT22;1015;49.756;6.994;2022-10-19T00:30:53;11.40;99.90
2022;DHT22;1015;49.756;6.994;2022-10-19T00:33:21;11.40;99.90
2022;DHT22;1015;49.756;6.994;2022-10-19T00:35:49;11.40;99.90
2022;DHT22;1015;49.756;6.994;2022-10-19T00:38:18;11.30;99.90
2022;DHT22;1015;49.756;6.994;2022-10-19T00:40:46;11.30;99.90
2022;DHT22;1015;49.756;6.994;2022-10-19T00:43:14;11.30;99.90
2022;DHT22;1015;49.756;6.994;2022-10-19T00:45:42;11.30;99.90
2022;DHT22;1015;49.756;6.994;2022-10-19T00:48:11;11.30;99.90
2022;DHT22;1015;49.756;6.994;2022-10-19T00:50:39;11.30;99.90
2022;DHT22;1015;49.756;6.994;2022-10-19T00:53:07;11.30;99.90
2022;DHT22;1015;49.756;6.994;2022-10-19T00:55:36;11.30;99.90
2022;DHT22;1015;49.756;6.994;2022-10-19T00:58:03;11.30;99.90
2022;DHT22;1015;49.756;6.994;2022-10-19T01:00:31;11.30;99.90
2022;DHT22;1015;49.756;6.994;2022-10-19T01:03:02;11.20;99.90
2022;DHT22;1015;49.756;6.994;2022-10-19T01:05:30;11.20;99.90
2022;DHT22;1015;49.756;6.994;2022-10-19T01:07:58;11.10;99.90
2022;DHT22;1015;49.756;6.994;2022-10-19T01:10:30;11.10;99.90
2022;DHT22;1015;49.756;6.994;2022-10-19T01:13:13;11.00;99.90
2022;DHT22;1015;49.756;6.994;2022-10-19T01:15:45;11.00;99.90
2022;DHT22;1015;49.756;6.994;2022-10-19T01:18:19;11.00;99.90
2022;DHT22;1015;49.756;6.994;2022-10-19T01:21:20;10.90;99.90
2022;DHT22;1015;49.756;6.994;2022-10-19T01:24:15;10.90;99.90
2022;DHT22;1015;49.756;6.994;2022-10-19T01:27:05;10.80;99.90
2022;DHT22;1015;49.756;6.994;2022-10-19T01:32:44;10.20;99.90
2022;DHT22;1015;49.756;6.994;2022-10-19T01:35:22;10.20;99.90
2022;DHT22;1015;49.756;6.994;2022-10-19T01:37:57;10.20;99.90
2022;DHT22;1015;49.756;6.994;2022-10-19T01:40:31;10.00;99.90
2022;DHT22;1015;49.756;6.994;2022-10-19T01:43:08;10.10;99.90
2022;DHT22;1015;49.756;6.994;2022-10-19T01:45:40;10.20;99.90
2022;DHT22;1015;49.756;6.994;2022-10-19T01:48:14;10.20;99.90
2022;DHT22;1015;49.756;6.994;2022-10-19T01:50:46;10.10;99.90
2022;DHT22;1015;49.756;6.994;2022-10-19T01:53:17;10.00;99.90
2022;DHT22;1015;49.756;6.994;2022-10-19T01:55:49;10.10;99.90
2022;DHT22;1015;49.756;6.994;2022-10-19T01:58:20;10.20;99.90
2022;DHT22;1015;49.756;6.994;2022-10-19T02:00:51;10.40;99.90
2022;DHT22;1015;49.756;6.994;2022-10-19T02:03:21;10.50;99.90
2022;DHT22;1015;49.756;6.994;2022-10-19T02:05:50;10.50;99.90
2022;DHT22;1015;49.756;6.994;2022-10-19T02:08:23;10.50;99.90
2022;DHT22;1015;49.756;6.994;2022-10-19T02:10:52;10.60;99.90
2022;DHT22;1015;49.756;6.994;2022-10-19T02:13:21;10.70;99.90
2022;DHT22;1015;49.756;6.994;2022-10-19T02:15:50;10.70;99.90
2022;DHT22;1015;49.756;6.994;2022-10-19T02:18:24;10.90;99.90
2022;DHT22;1015;49.756;6.994;2022-10-19T02:20:53;10.90;99.90
2022;DHT22;1015;49.756;6.994;2022-10-19T02:23:21;10.90;99.90
2022;DHT22;1015;49.756;6.994;2022-10-19T02:25:50;10.90;99.90
2022;DHT22;1015;49.756;6.994;2022-10-19T02:28:18;11.00;99.90
2022;DHT22;1015;49.756;6.994;2022-10-19T02:30:45;11.20;99.90
2022;DHT22;1015;49.756;6.994;2022-10-19T02:33:13;11.30;99.90
2022;DHT22;1015;49.756;6.994;2022-10-19T02:35:42;11.40;99.90
2022;DHT22;1015;49.756;6.994;2022-10-19T02:38:12;11.40;99.90
2022;DHT22;1015;49.756;6.994;2022-10-19T02:40:44;11.50;99.90
2022;DHT22;1015;49.756;6.994;2022-10-19T02:43:17;11.60;99.90
2022;DHT22;1015;49.756;6.994;2022-10-19T02:45:51;11.60;99.90
2022;DHT22;1015;49.756;6.994;2022-10-19T02:48:22;11.70;99.90
2022;DHT22;1015;49.756;6.994;2022-10-19T02:50:52;11.70;99.90
2022;DHT22;1015;49.756;6.994;2022-10-19T02:53:19;11.80;99.90
2022;DHT22;1015;49.756;6.994;2022-10-19T02:55:47;11.80;99.90
2022;DHT22;1015;49.756;6.994;2022-10-19T02:58:14;11.80;99.90
2022;DHT22;1015;49.756;6.994;2022-10-19T03:00:42;11.80;99.90
2022;DHT22;1015;49.756;6.994;2022-10-19T03:03:09;11.90;99.90
2022;DHT22;1015;49.756;6.994;2022-10-19T03:05:36;11.90;99.90
2022;DHT22;1015;49.756;6.994;2022-10-19T03:08:05;12.00;99.90
2022;DHT22;1015;49.756;6.994;2022-10-19T03:10:32;12.00;99.90
2022;DHT22;1015;49.756;6.994;2022-10-19T03:13:00;11.90;99.90
2022;DHT22;1015;49.756;6.994;2022-10-19T03:15:28;12.00;99.90
2022;DHT22;1015;49.756;6.994;2022-10-19T03:17:55;12.00;99.90
2022;DHT22;1015;49.756;6.994;2022-10-19T03:20:23;12.00;99.90
2022;DHT22;1015;49.756;6.994;2022-10-19T03:22:50;12.10;99.90
2022;DHT22;1015;49.756;6.994;2022-10-19T03:25:19;12.10;99.90
2022;DHT22;1015;49.756;6.994;2022-10-19T03:27:46;12.10;99.90
2022;DHT22;1015;49.756;6.994;2022-10-19T03:30:13;12.10;99.90
2022;DHT22;1015;49.756;6.994;2022-10-19T03:32:41;12.10;99.90
2022;DHT22;1015;49.756;6.994;2022-10-19T03:35:08;12.10;99.90
2022;DHT22;1015;49.756;6.994;2022-10-19T03:37:35;12.10;99.90
2022;DHT22;1015;49.756;6.994;2022-10-19T03:40:03;12.00;99.90
2022;DHT22;1015;49.756;6.994;2022-10-19T03:42:32;12.00;99.90
2022;DHT22;1015;49.756;6.994;2022-10-19T03:44:59;12.00;99.90
2022;DHT22;1015;49.756;6.994;2022-10-19T03:47:26;11.90;99.90
2022;DHT22;1015;49.756;6.994;2022-10-19T03:49:53;11.90;99.90
2022;DHT22;1015;49.756;6.994;2022-10-19T03:52:21;11.80;99.90
2022;DHT22;1015;49.756;6.994;2022-10-19T03:54:49;11.80;99.90
2022;DHT22;1015;49.756;6.994;2022-10-19T03:57:16;11.70;99.90
2022;DHT22;1015;49.756;6.994;2022-10-19T03:59:45;11.70;99.90
2022;DHT22;1015;49.756;6.994;2022-10-19T04:02:12;11.60;99.90
2022;DHT22;1015;49.756;6.994;2022-10-19T04:04:39;11.60;99.90
2022;DHT22;1015;49.756;6.994;2022-10-19T04:07:07;11.60;99.90
2022;DHT22;1015;49.756;6.994;2022-10-19T04:09:34;11.60;99.90
2022;DHT22;1015;49.756;6.994;2022-10-19T04:12:02;11.60;99.90
2022;DHT22;1015;49.756;6.994;2022-10-19T04:14:29;11.60;99.90
2022;DHT22;1015;49.756;6.994;2022-10-19T04:16:58;11.70;99.90
2022;DHT22;1015;49.756;6.994;2022-10-19T04:19:25;11.60;99.90
2022;DHT22;1015;49.756;6.994;2022-10-19T04:21:52;11.60;99.90
2022;DHT22;1015;49.756;6.994;2022-10-19T04:24:19;11.60;99.90
2022;DHT22;1015;49.756;6.994;2022-10-19T04:26:48;11.60;99.90
2022;DHT22;1015;49.756;6.994;2022-10-19T04:29:17;11.50;99.90
2022;DHT22;1015;49.756;6.994;2022-10-19T04:31:44;11.40;99.90
2022;DHT22;1015;49.756;6.994;2022-10-19T04:34:13;11.50;99.90
2022;DHT22;1015;49.756;6.994;2022-10-19T04:36:44;11.30;99.90
2022;DHT22;1015;49.756;6.994;2022-10-19T04:39:11;11.30;99.90
2022;DHT22;1015;49.756;6.994;2022-10-19T04:41:38;11.30;99.90
2022;DHT22;1015;49.756;6.994;2022-10-19T04:44:05;11.40;99.90
2022;DHT22;1015;49.756;6.994;2022-10-19T04:46:33;11.30;99.90
2022;DHT22;1015;49.756;6.994;2022-10-19T04:49:00;11.30;99.90
2022;DHT22;1015;49.756;6.994;2022-10-19T04:51:30;11.20;99.90
2022;DHT22;1015;49.756;6.994;2022-10-19T04:53:57;11.20;99.90
2022;DHT22;1015;49.756;6.994;2022-10-19T04:56:25;11.20;99.90
2022;DHT22;1015;49.756;6.994;2022-10-19T04:58:54;11.10;99.90
2022;DHT22;1015;49.756;6.994;2022-10-19T05:01:23;11.10;99.90
2022;DHT22;1015;49.756;6.994;2022-10-19T05:03:53;11.10;99.90
2022;DHT22;1015;49.756;6.994;2022-10-19T05:06:20;11.10;99.90
2022;DHT22;1015;49.756;6.994;2022-10-19T05:08:49;11.10;99.90
2022;DHT22;1015;49.756;6.994;2022-10-19T05:11:17;11.10;99.90
2022;DHT22;1015;49.756;6.994;2022-10-19T05:13:45;11.10;99.90
2022;DHT22;1015;49.756;6.994;2022-10-19T05:16:13;11.20;99.90
2022;DHT22;1015;49.756;6.994;2022-10-19T05:18:41;11.20;99.90
2022;DHT22;1015;49.756;6.994;2022-10-19T05:21:10;11.10;99.90
2022;DHT22;1015;49.756;6.994;2022-10-19T05:23:38;11.10;99.90
2022;DHT22;1015;49.756;6.994;2022-10-19T05:26:09;11.00;99.90
2022;DHT22;1015;49.756;6.994;2022-10-19T05:28:37;11.10;99.90
2022;DHT22;1015;49.756;6.994;2022-10-19T05:31:06;11.10;99.90
2022;DHT22;1015;49.756;6.994;2022-10-19T05:33:34;11.10;99.90
2022;DHT22;1015;49.756;6.994;2022-10-19T05:36:13;11.10;99.90
2022;DHT22;1015;49.756;6.994;2022-10-19T05:38:41;11.20;99.90
2022;DHT22;1015;49.756;6.994;2022-10-19T05:41:10;11.20;99.90
2022;DHT22;1015;49.756;6.994;2022-10-19T05:43:38;11.20;99.90
2022;DHT22;1015;49.756;6.994;2022-10-19T05:46:07;11.10;99.90
2022;DHT22;1015;49.756;6.994;2022-10-19T05:48:36;11.00;99.90
2022;DHT22;1015;49.756;6.994;2022-10-19T05:51:05;11.00;99.90
2022;DHT22;1015;49.756;6.994;2022-10-19T05:53:33;11.10;99.90
2022;DHT22;1015;49.756;6.994;2022-10-19T05:56:00;11.10;99.90
2022;DHT22;1015;49.756;6.994;2022-10-19T05:58:29;11.10;99.90
2022;DHT22;1015;49.756;6.994;2022-10-19T06:00:57;11.00;99.90
2022;DHT22;1015;49.756;6.994;2022-10-19T06:03:25;11.10;99.90
2022;DHT22;1015;49.756;6.994;2022-10-19T06:05:53;11.10;99.90
2022;DHT22;1015;49.756;6.994;2022-10-19T06:08:22;11.10;99.90
2022;DHT22;1015;49.756;6.994;2022-10-19T06:10:50;11.00;99.90
2022;DHT22;1015;49.756;6.994;2022-10-19T06:13:18;11.10;99.90
2022;DHT22;1015;49.756;6.994;2022-10-19T06:15:49;11.10;99.90
2022;DHT22;1015;49.756;6.994;2022-10-19T06:18:16;11.00;99.90
2022;DHT22;1015;49.756;6.994;2022-10-19T06:20:44;11.10;99.90
2022;DHT22;1015;49.756;6.994;2022-10-19T06:23:12;11.00;99.90
2022;DHT22;1015;49.756;6.994;2022-10-19T06:25:39;11.00;99.90
2022;DHT22;1015;49.756;6.994;2022-10-19T06:28:07;11.00;99.90
2022;DHT22;1015;49.756;6.994;2022-10-19T06:30:37;11.00;99.90
2022;DHT22;1015;49.756;6.994;2022-10-19T06:33:06;11.10;99.90
2022;DHT22;1015;49.756;6.994;2022-10-19T06:35:34;11.00;99.90
2022;DHT22;1015;49.756;6.994;2022-10-19T06:38:01;11.10;99.90
2022;DHT22;1015;49.756;6.994;2022-10-19T06:40:29;11.10;99.90
2022;DHT22;1015;49.756;6.994;2022-10-19T06:42:56;11.10;99.90
2022;DHT22;1015;49.756;6.994;2022-10-19T06:45:23;11.20;99.90
2022;DHT22;1015;49.756;6.994;2022-10-19T06:47:51;11.20;99.90
2022;DHT22;1015;49.756;6.994;2022-10-19T06:50:19;11.20;99.90
2022;DHT22;1015;49.756;6.994;2022-10-19T06:52:47;11.30;99.90
2022;DHT22;1015;49.756;6.994;2022-10-19T06:55:14;11.30;99.90
2022;DHT22;1015;49.756;6.994;2022-10-19T06:57:43;11.40;99.90
2022;DHT22;1015;49.756;6.994;2022-10-19T07:00:11;11.40;99.90
2022;DHT22;1015;49.756;6.994;2022-10-19T07:02:39;11.40;99.90
2022;DHT22;1015;49.756;6.994;2022-10-19T07:05:06;11.50;99.90
2022;DHT22;1015;49.756;6.994;2022-10-19T07:07:35;11.60;99.90
2022;DHT22;1015;49.756;6.994;2022-10-19T07:10:03;11.60;99.90
2022;DHT22;1015;49.756;6.994;2022-10-19T07:12:30;11.70;99.90
2022;DHT22;1015;49.756;6.994;2022-10-19T07:14:57;11.90;99.90
2022;DHT22;1015;49.756;6.994;2022-10-19T07:17:24;11.90;99.90
2022;DHT22;1015;49.756;6.994;2022-10-19T07:19:52;12.00;99.90
2022;DHT22;1015;49.756;6.994;2022-10-19T07:22:19;11.90;99.90
2022;DHT22;1015;49.756;6.994;2022-10-19T07:24:48;11.90;99.90
2022;DHT22;1015;49.756;6.994;2022-10-19T07:27:17;12.00;99.90
2022;DHT22;1015;49.756;6.994;2022-10-19T07:29:44;11.90;99.90
2022;DHT22;1015;49.756;6.994;2022-10-19T07:32:11;11.90;99.90
2022;DHT22;1015;49.756;6.994;2022-10-19T07:34:39;11.90;99.90
2022;DHT22;1015;49.756;6.994;2022-10-19T07:37:06;11.90;99.90
2022;DHT22;1015;49.756;6.994;2022-10-19T07:39:33;11.90;99.90
2022;DHT22;1015;49.756;6.994;2022-10-19T07:42:02;11.90;99.90
2022;DHT22;1015;49.756;6.994;2022-10-19T07:44:29;11.80;99.90
2022;DHT22;1015;49.756;6.994;2022-10-19T07:46:56;12.00;99.90
2022;DHT22;1015;49.756;6.994;2022-10-19T07:49:24;12.10;99.90
2022;DHT22;1015;49.756;6.994;2022-10-19T07:51:51;12.20;99.90
2022;DHT22;1015;49.756;6.994;2022-10-19T07:54:19;12.30;99.90
2022;DHT22;1015;49.756;6.994;2022-10-19T07:56:48;12.20;99.90
2022;DHT22;1015;49.756;6.994;2022-10-19T07:59:17;12.20;99.90
2022;DHT22;1015;49.756;6.994;2022-10-19T08:01:44;12.20;99.90
2022;DHT22;1015;49.756;6.994;2022-10-19T08:04:13;12.00;99.90
2022;DHT22;1015;49.756;6.994;2022-10-19T08:06:40;12.00;99.90
2022;DHT22;1015;49.756;6.994;2022-10-19T08:09:07;12.00;99.90
2022;DHT22;1015;49.756;6.994;2022-10-19T08:11:35;11.90;99.90
2022;DHT22;1015;49.756;6.994;2022-10-19T08:14:02;11.90;99.90
2022;DHT22;1015;49.756;6.994;2022-10-19T08:16:32;11.90;99.90
2022;DHT22;1015;49.756;6.994;2022-10-19T08:19:05;12.00;99.90
2022;DHT22;1015;49.756;6.994;2022-10-19T08:21:33;12.00;99.90
2022;DHT22;1015;49.756;6.994;2022-10-19T08:24:00;12.00;99.90
2022;DHT22;1015;49.756;6.994;2022-10-19T08:26:29;12.20;99.90
2022;DHT22;1015;49.756;6.994;2022-10-19T08:28:58;12.30;99.90
2022;DHT22;1015;49.756;6.994;2022-10-19T08:31:26;12.20;99.90
2022;DHT22;1015;49.756;6.994;2022-10-19T08:33:54;12.10;99.90
2022;DHT22;1015;49.756;6.994;2022-10-19T08:36:22;12.20;99.90
2022;DHT22;1015;49.756;6.994;2022-10-19T08:38:49;12.40;99.90
2022;DHT22;1015;49.756;6.994;2022-10-19T08:41:22;12.40;99.90
2022;DHT22;1015;49.756;6.994;2022-10-19T08:44:14;12.30;99.90
2022;DHT22;1015;49.756;6.994;2022-10-19T08:46:49;12.30;99.90
2022;DHT22;1015;49.756;6.994;2022-10-19T08:49:22;12.30;99.90
2022;DHT22;1015;49.756;6.994;2022-10-19T08:51:55;12.30;99.90
2022;DHT22;1015;49.756;6.994;2022-10-19T08:54:25;12.20;99.90
2022;DHT22;1015;49.756;6.994;2022-10-19T08:57:01;12.10;99.90
2022;DHT22;1015;49.756;6.994;2022-10-19T08:59:37;12.00;99.90
2022;DHT22;1015;49.756;6.994;2022-10-19T09:02:15;12.00;99.90
2022;DHT22;1015;49.756;6.994;2022-10-19T09:04:48;12.00;99.90
2022;DHT22;1015;49.756;6.994;2022-10-19T09:07:23;12.00;99.90
2022;DHT22;1015;49.756;6.994;2022-10-19T09:09:55;12.10;99.90
2022;DHT22;1015;49.756;6.994;2022-10-19T09:12:34;12.10;99.90
2022;DHT22;1015;49.756;6.994;2022-10-19T09:15:05;12.20;99.90
2022;DHT22;1015;49.756;6.994;2022-10-19T09:17:33;12.30;99.90
2022;DHT22;1015;49.756;6.994;2022-10-19T09:20:13;12.30;99.90
2022;DHT22;1015;49.756;6.994;2022-10-19T09:22:42;12.30;99.90
2022;DHT22;1015;49.756;6.994;2022-10-19T09:25:13;12.40;99.90
2022;DHT22;1015;49.756;6.994;2022-10-19T09:27:47;12.50;99.90
2022;DHT22;1015;49.756;6.994;2022-10-19T09:30:17;12.60;99.90
2022;DHT22;1015;49.756;6.994;2022-10-19T09:32:45;12.60;99.90
2022;DHT22;1015;49.756;6.994;2022-10-19T09:35:27;12.70;99.90
2022;DHT22;1015;49.756;6.994;2022-10-19T09:37:55;12.80;99.90
2022;DHT22;1015;49.756;6.994;2022-10-19T09:40:25;12.90;99.90
2022;DHT22;1015;49.756;6.994;2022-10-19T09:42:52;13.00;99.90
2022;DHT22;1015;49.756;6.994;2022-10-19T09:45:32;13.10;99.90
2022;DHT22;1015;49.756;6.994;2022-10-19T09:48:02;13.20;99.90
2022;DHT22;1015;49.756;6.994;2022-10-19T09:50:32;13.40;99.90
2022;DHT22;1015;49.756;6.994;2022-10-19T09:53:03;13.30;99.90
2022;DHT22;1015;49.756;6.994;2022-10-19T09:55:35;13.40;99.90
2022;DHT22;1015;49.756;6.994;2022-10-19T09:58:08;13.40;99.90
2022;DHT22;1015;49.756;6.994;2022-10-19T10:01:00;13.40;99.90
2022;DHT22;1015;49.756;6.994;2022-10-19T10:03:30;13.40;99.90
2022;DHT22;1015;49.756;6.994;2022-10-19T10:06:03;13.50;99.90
2022;DHT22;1015;49.756;6.994;2022-10-19T10:08:34;13.70;99.90
2022;DHT22;1015;49.756;6.994;2022-10-19T10:11:09;13.80;99.90
2022;DHT22;1015;49.756;6.994;2022-10-19T10:13:39;13.70;99.90
2022;DHT22;1015;49.756;6.994;2022-10-19T10:16:10;13.70;99.90
2022;DHT22;1015;49.756;6.994;2022-10-19T10:18:48;13.70;99.90
2022;DHT22;1015;49.756;6.994;2022-10-19T10:21:22;13.70;99.90
2022;DHT22;1015;49.756;6.994;2022-10-19T10:23:59;13.70;99.90
2022;DHT22;1015;49.756;6.994;2022-10-19T10:26:27;13.60;99.90
2022;DHT22;1015;49.756;6.994;2022-10-19T10:28:54;13.60;99.90
2022;DHT22;1015;49.756;6.994;2022-10-19T10:31:24;13.50;99.90
2022;DHT22;1015;49.756;6.994;2022-10-19T10:33:54;13.50;99.90
2022;DHT22;1015;49.756;6.994;2022-10-19T10:36:26;13.50;99.90
2022;DHT22;1015;49.756;6.994;2022-10-19T10:38:59;13.50;99.90
2022;DHT22;1015;49.756;6.994;2022-10-19T10:41:30;13.50;99.90
2022;DHT22;1015;49.756;6.994;2022-10-19T10:43:59;13.40;99.90
2022;DHT22;1015;49.756;6.994;2022-10-19T10:46:32;13.30;99.90
2022;DHT22;1015;49.756;6.994;2022-10-19T10:49:02;13.30;99.90
2022;DHT22;1015;49.756;6.994;2022-10-19T10:51:37;13.30;99.90
2022;DHT22;1015;49.756;6.994;2022-10-19T10:54:13;13.20;99.90
2022;DHT22;1015;49.756;6.994;2022-10-19T10:56:43;13.20;99.90
2022;DHT22;1015;49.756;6.994;2022-10-19T10:59:24;13.30;99.90
2022;DHT22;1015;49.756;6.994;2022-10-19T11:01:57;13.40;99.90
2022;DHT22;1015;49.756;6.994;2022-10-19T11:04:30;13.30;99.90
2022;DHT22;1015;49.756;6.994;2022-10-19T11:07:04;13.30;99.90
2022;DHT22;1015;49.756;6.994;2022-10-19T11:09:36;13.30;99.90
2022;DHT22;1015;49.756;6.994;2022-10-19T11:12:09;13.40;99.90
2022;DHT22;1015;49.756;6.994;2022-10-19T11:14:44;13.30;99.90
2022;DHT22;1015;49.756;6.994;2022-10-19T11:17:17;13.40;99.90
2022;DHT22;1015;49.756;6.994;2022-10-19T11:19:47;13.40;99.90
2022;DHT22;1015;49.756;6.994;2022-10-19T11:22:21;13.50;99.90
2022;DHT22;1015;49.756;6.994;2022-10-19T11:25:02;13.50;99.90
2022;DHT22;1015;49.756;6.994;2022-10-19T11:27:40;13.60;99.90
2022;DHT22;1015;49.756;6.994;2022-10-19T11:30:11;13.70;99.90
2022;DHT22;1015;49.756;6.994;2022-10-19T11:32:47;13.80;99.90
2022;DHT22;1015;49.756;6.994;2022-10-19T11:35:35;13.70;99.90
2022;DHT22;1015;49.756;6.994;2022-10-19T11:41:12;13.90;99.90
2022;DHT22;1015;49.756;6.994;2022-10-19T11:43:47;13.90;99.90
2022;DHT22;1015;49.756;6.994;2022-10-19T11:46:23;13.90;99.90
2022;DHT22;1015;49.756;6.994;2022-10-19T11:49:02;13.80;99.90
2022;DHT22;1015;49.756;6.994;2022-10-19T11:51:34;13.90;99.90
2022;DHT22;1015;49.756;6.994;2022-10-19T11:54:16;13.80;99.90
2022;DHT22;1015;49.756;6.994;2022-10-19T11:56:51;13.90;99.90
2022;DHT22;1015;49.756;6.994;2022-10-19T11:59:28;14.00;99.90
2022;DHT22;1015;49.756;6.994;2022-10-19T12:02:03;14.20;99.90
2022;DHT22;1015;49.756;6.994;2022-10-19T12:04:42;14.10;99.90
2022;DHT22;1015;49.756;6.994;2022-10-19T12:10:17;14.10;99.90
2022;DHT22;1015;49.756;6.994;2022-10-19T12:12:48;14.20;99.90
2022;DHT22;1015;49.756;6.994;2022-10-19T12:15:25;14.40;99.90
2022;DHT22;1015;49.756;6.994;2022-10-19T12:17:56;14.50;99.90
2022;DHT22;1015;49.756;6.994;2022-10-19T12:20:30;14.60;99.90
2022;DHT22;1015;49.756;6.994;2022-10-19T12:23:10;14.50;99.90
2022;DHT22;1015;49.756;6.994;2022-10-19T12:25:43;14.60;99.90
2022;DHT22;1015;49.756;6.994;2022-10-19T12:28:17;14.50;99.90
2022;DHT22;1015;49.756;6.994;2022-10-19T12:30:47;14.60;99.90
2022;DHT22;1015;49.756;6.994;2022-10-19T12:33:19;14.90;99.90
2022;DHT22;1015;49.756;6.994;2022-10-19T12:36:10;14.90;99.90
2022;DHT22;1015;49.756;6.994;2022-10-19T12:38:45;14.90;99.90
2022;DHT22;1015;49.756;6.994;2022-10-19T12:41:21;14.80;99.90
2022;DHT22;1015;49.756;6.994;2022-10-19T12:44:11;14.60;99.90
2022;DHT22;1015;49.756;6.994;2022-10-19T12:46:41;14.70;99.90
2022;DHT22;1015;49.756;6.994;2022-10-19T12:49:45;14.80;99.90
2022;DHT22;1015;49.756;6.994;2022-10-19T12:52:15;14.70;99.90
2022;DHT22;1015;49.756;6.994;2022-10-19T12:54:43;14.70;99.90
2022;DHT22;1015;49.756;6.994;2022-10-19T12:57:26;14.50;99.90
2022;DHT22;1015;49.756;6.994;2022-10-19T13:00:00;14.80;99.90
2022;DHT22;1015;49.756;6.994;2022-10-19T13:02:30;14.60;99.90
2022;DHT22;1015;49.756;6.994;2022-10-19T13:04:58;14.50;99.90
2022;DHT22;1015;49.756;6.994;2022-10-19T13:07:33;14.60;99.90
2022;DHT22;1015;49.756;6.994;2022-10-19T13:10:03;14.60;99.90
2022;DHT22;1015;49.756;6.994;2022-10-19T13:12:44;14.50;99.90
2022;DHT22;1015;49.756;6.994;2022-10-19T13:21:49;14.20;99.90
2022;DHT22;1015;49.756;6.994;2022-10-19T13:24:30;14.10;99.90
2022;DHT22;1015;49.756;6.994;2022-10-19T13:27:35;14.10;99.90
2022;DHT22;1015;49.756;6.994;2022-10-19T13:33:48;14.10;99.90
2022;DHT22;1015;49.756;6.994;2022-10-19T13:36:17;14.10;99.90
2022;DHT22;1015;49.756;6.994;2022-10-19T13:38:46;14.20;99.90
2022;DHT22;1015;49.756;6.994;2022-10-19T13:41:18;14.10;99.90
2022;DHT22;1015;49.756;6.994;2022-10-19T13:44:16;14.00;99.90
2022;DHT22;1015;49.756;6.994;2022-10-19T13:47:11;14.00;99.90
2022;DHT22;1015;49.756;6.994;2022-10-19T13:53:30;14.10;99.90
2022;DHT22;1015;49.756;6.994;2022-10-19T14:02:18;14.10;99.90
2022;DHT22;1015;49.756;6.994;2022-10-19T14:04:54;14.00;99.90
2022;DHT22;1015;49.756;6.994;2022-10-19T14:07:31;14.00;99.90
2022;DHT22;1015;49.756;6.994;2022-10-19T14:10:06;13.80;99.90
2022;DHT22;1015;49.756;6.994;2022-10-19T14:12:40;13.70;99.90
2022;DHT22;1015;49.756;6.994;2022-10-19T14:15:19;13.80;99.90
2022;DHT22;1015;49.756;6.994;2022-10-19T14:17:48;13.70;99.90
2022;DHT22;1015;49.756;6.994;2022-10-19T14:20:26;13.50;99.90
2022;DHT22;1015;49.756;6.994;2022-10-19T14:22:54;13.40;99.90
2022;DHT22;1015;49.756;6.994;2022-10-19T14:25:23;13.20;99.90
2022;DHT22;1015;49.756;6.994;2022-10-19T14:27:57;13.10;99.90
2022;DHT22;1015;49.756;6.994;2022-10-19T14:30:27;13.00;99.90
2022;DHT22;1015;49.756;6.994;2022-10-19T14:32:58;12.90;99.90
2022;DHT22;1015;49.756;6.994;2022-10-19T14:35:36;13.00;99.90
2022;DHT22;1015;49.756;6.994;2022-10-19T14:38:05;13.00;99.90
2022;DHT22;1015;49.756;6.994;2022-10-19T14:40:37;13.10;99.90
2022;DHT22;1015;49.756;6.994;2022-10-19T14:43:19;13.10;99.90
2022;DHT22;1015;49.756;6.994;2022-10-19T14:46:02;13.30;99.90
2022;DHT22;1015;49.756;6.994;2022-10-19T14:48:30;13.30;99.90
2022;DHT22;1015;49.756;6.994;2022-10-19T14:50:58;13.30;99.90
2022;DHT22;1015;49.756;6.994;2022-10-19T14:53:33;13.20;99.90
2022;DHT22;1015;49.756;6.994;2022-10-19T14:56:05;13.30;99.90
2022;DHT22;1015;49.756;6.994;2022-10-19T14:58:37;13.10;99.90
2022;DHT22;1015;49.756;6.994;2022-10-19T15:01:06;13.20;99.90
2022;DHT22;1015;49.756;6.994;2022-10-19T15:03:40;13.00;99.90
2022;DHT22;1015;49.756;6.994;2022-10-19T15:06:16;13.10;99.90
2022;DHT22;1015;49.756;6.994;2022-10-19T15:08:51;13.10;99.90
2022;DHT22;1015;49.756;6.994;2022-10-19T15:11:23;13.10;99.90
2022;DHT22;1015;49.756;6.994;2022-10-19T15:13:57;13.00;99.90
2022;DHT22;1015;49.756;6.994;2022-10-19T15:16:32;12.90;99.90
2022;DHT22;1015;49.756;6.994;2022-10-19T15:19:05;12.90;99.90
2022;DHT22;1015;49.756;6.994;2022-10-19T15:21:37;12.80;99.90
2022;DHT22;1015;49.756;6.994;2022-10-19T15:24:20;12.80;99.90
2022;DHT22;1015;49.756;6.994;2022-10-19T15:26:49;12.70;99.90
2022;DHT22;1015;49.756;6.994;2022-10-19T15:29:20;12.70;99.90
2022;DHT22;1015;49.756;6.994;2022-10-19T15:31:48;12.70;99.90
2022;DHT22;1015;49.756;6.994;2022-10-19T15:34:23;12.60;99.90
2022;DHT22;1015;49.756;6.994;2022-10-19T15:36:55;12.60;99.90
2022;DHT22;1015;49.756;6.994;2022-10-19T15:39:28;12.50;99.90
2022;DHT22;1015;49.756;6.994;2022-10-19T15:42:21;12.50;99.90
2022;DHT22;1015;49.756;6.994;2022-10-19T15:44:49;12.50;99.90
2022;DHT22;1015;49.756;6.994;2022-10-19T15:47:22;12.50;99.90
2022;DHT22;1015;49.756;6.994;2022-10-19T15:49:54;12.50;99.90
2022;DHT22;1015;49.756;6.994;2022-10-19T15:52:22;12.50;99.90
2022;DHT22;1015;49.756;6.994;2022-10-19T15:54:51;12.60;99.90
2022;DHT22;1015;49.756;6.994;2022-10-19T15:57:25;12.60;99.90
2022;DHT22;1015;49.756;6.994;2022-10-19T15:59:53;12.50;99.90
2022;DHT22;1015;49.756;6.994;2022-10-19T16:02:21;12.50;99.90
2022;DHT22;1015;49.756;6.994;2022-10-19T16:04:51;12.50;99.90
2022;DHT22;1015;49.756;6.994;2022-10-19T16:07:24;12.50;99.90
2022;DHT22;1015;49.756;6.994;2022-10-19T16:09:52;12.50;99.90
2022;DHT22;1015;49.756;6.994;2022-10-19T16:12:21;12.50;99.90
2022;DHT22;1015;49.756;6.994;2022-10-19T16:14:51;12.50;99.90
2022;DHT22;1015;49.756;6.994;2022-10-19T16:17:22;12.50;99.90
2022;DHT22;1015;49.756;6.994;2022-10-19T16:19:51;12.50;99.90
2022;DHT22;1015;49.756;6.994;2022-10-19T16:22:30;12.50;99.90
2022;DHT22;1015;49.756;6.994;2022-10-19T16:24:58;12.50;99.90
2022;DHT22;1015;49.756;6.994;2022-10-19T16:27:25;12.50;99.90
2022;DHT22;1015;49.756;6.994;2022-10-19T16:29:52;12.50;99.90
2022;DHT22;1015;49.756;6.994;2022-10-19T16:32:20;12.50;99.90
2022;DHT22;1015;49.756;6.994;2022-10-19T16:34:47;12.50;99.90
2022;DHT22;1015;49.756;6.994;2022-10-19T16:37:18;12.50;99.90
2022;DHT22;1015;49.756;6.994;2022-10-19T16:39:45;12.50;99.90
2022;DHT22;1015;49.756;6.994;2022-10-19T16:42:13;12.50;99.90
2022;DHT22;1015;49.756;6.994;2022-10-19T16:44:40;12.50;99.90
2022;DHT22;1015;49.756;6.994;2022-10-19T16:47:09;12.50;99.90
2022;DHT22;1015;49.756;6.994;2022-10-19T16:49:36;12.50;99.90
2022;DHT22;1015;49.756;6.994;2022-10-19T16:52:03;12.50;99.90
2022;DHT22;1015;49.756;6.994;2022-10-19T16:54:32;12.50;99.90
2022;DHT22;1015;49.756;6.994;2022-10-19T16:56:59;12.50;99.90